Swift 24 — SWIFT24 — position and weather

sailwx.info

Track history (hours):
 
Tides and Currents Weather Stations Pressure Air Temp Water Temp Dewpoint Dewpoint Depression Visibility Wind Speed Wind Dir Waves Ship Positions

Swift 24

Last reported at 2017-Sep-13 19:47 UTC. Time now 2017-Nov-18 01:11 UTC.
Position N 34°52' W 120°41'.
Warning: this ship's position is months out of date.

Type: Sailing vessel. MMSI: 338236808.

Date/timePositionNaut miles runAvg speedWind from/ knotsBaromVisibWave heightAir tempDewpointWater temp
2017-Sep-13 19:47N 34°52' W 120°41'1 0.6
2017-Sep-13 18:50N 34°53' W 120°42'0 0.6
2017-Sep-13 18:11N 34°53' W 120°42'1 0.5
2017-Sep-13 17:11N 34°53' W 120°42'0 0.7
2017-Sep-13 16:53N 34°54' W 120°42'1 0.6
2017-Sep-13 15:26N 34°54' W 120°41'2 0.1
2017-Sep-12 20:33N 34°53' W 120°40'0 1.5
2017-Sep-12 20:17N 34°53' W 120°40'0 0.7
2017-Sep-12 19:59N 34°53' W 120°40'0 0.6
2017-Sep-12 19:27N 34°53' W 120°41'0 0.6
2017-Sep-12 18:58N 34°53' W 120°41'0 0.5
2017-Sep-12 18:30N 34°53' W 120°41'0 0.5
2017-Sep-12 17:59N 34°54' W 120°41'0 0.5
2017-Sep-12 17:29N 34°54' W 120°41'0 0.5
2017-Sep-12 16:56N 34°54' W 120°42'0 0.4
2017-Sep-12 16:30N 34°54' W 120°42'0 0.3
2017-Sep-12 16:00N 34°54' W 120°42'0 0.4
2017-Sep-12 15:30N 34°54' W 120°42'1 0.0
2017-Sep-11 19:43N 34°54' W 120°41'0 0.2
2017-Sep-11 19:28N 34°54' W 120°41'0 0.4
2017-Sep-11 18:45N 34°54' W 120°41'0 0.4
2017-Sep-11 18:30N 34°54' W 120°41'0 0.3
2017-Sep-11 17:53N 34°54' W 120°41'0 0.2
2017-Sep-11 17:30N 34°54' W 120°41'0 0.2
2017-Sep-11 16:53N 34°54' W 120°42'0 0.1
2017-Sep-11 16:18N 34°54' W 120°42'0 0.0
2017-Sep-10 20:42N 34°54' W 120°42'1 0.0
2017-Sep-09 05:46N 34°54' W 120°40'0 0.0
2017-Sep-09 05:28N 34°54' W 120°40'0 0.0
2017-Sep-09 04:38N 34°54' W 120°40'0 0.0
2017-Sep-09 03:15N 34°54' W 120°40'0 0.0
2017-Sep-09 02:54N 34°54' W 120°40'0 0.0
2017-Sep-08 20:41N 34°54' W 120°40'0 0.0
2017-Sep-08 20:30N 34°54' W 120°40'0 0.0
2017-Sep-08 17:35N 34°54' W 120°40'0 0.1
2017-Sep-08 17:28N 34°54' W 120°40'0 0.0
2017-Sep-07 16:36N 34°54' W 120°40'0 0.0
2017-Sep-07 16:29N 34°54' W 120°40'0 0.0
2017-Sep-07 12:51N 34°54' W 120°40'0 0.0
2017-Sep-07 09:03N 34°54' W 120°40'0 0.0
2017-Sep-07 08:59N 34°54' W 120°40'0 0.0
2017-Sep-07 07:28N 34°54' W 120°40'0 0.0
2017-Sep-07 06:41N 34°54' W 120°40'0 0.0
2017-Sep-07 05:09N 34°54' W 120°40'0 0.0
2017-Sep-06 21:53N 34°54' W 120°40'9 3.4
2017-Sep-06 19:14N 35°03' W 120°39'  
Track history (hours):
 
Tides and Currents Weather Stations Pressure Air Temp Water Temp Dewpoint Dewpoint Depression Visibility Wind Speed Wind Dir Waves Ship Positions

Swift 24

Last reported at 2017-Sep-13 19:47 UTC. Time now 2017-Nov-18 01:11 UTC.
Position N 34°52' W 120°41'.
Warning: this ship's position is months out of date.

Type: Sailing vessel. MMSI: 338236808.

Date/timePositionNaut miles runAvg speedWind from/ knotsBaromVisibWave heightAir tempDewpointWater temp
2017-Sep-13 19:47N 34°52' W 120°41'1 0.6
2017-Sep-13 18:50N 34°53' W 120°42'0 0.6
2017-Sep-13 18:11N 34°53' W 120°42'1 0.5
2017-Sep-13 17:11N 34°53' W 120°42'0 0.7
2017-Sep-13 16:53N 34°54' W 120°42'1 0.6
2017-Sep-13 15:26N 34°54' W 120°41'2 0.1
2017-Sep-12 20:33N 34°53' W 120°40'0 1.5
2017-Sep-12 20:17N 34°53' W 120°40'0 0.7
2017-Sep-12 19:59N 34°53' W 120°40'0 0.6
2017-Sep-12 19:27N 34°53' W 120°41'0 0.6
2017-Sep-12 18:58N 34°53' W 120°41'0 0.5
2017-Sep-12 18:30N 34°53' W 120°41'0 0.5
2017-Sep-12 17:59N 34°54' W 120°41'0 0.5
2017-Sep-12 17:29N 34°54' W 120°41'0 0.5
2017-Sep-12 16:56N 34°54' W 120°42'0 0.4
2017-Sep-12 16:30N 34°54' W 120°42'0 0.3
2017-Sep-12 16:00N 34°54' W 120°42'0 0.4
2017-Sep-12 15:30N 34°54' W 120°42'1 0.0
2017-Sep-11 19:43N 34°54' W 120°41'0 0.2
2017-Sep-11 19:28N 34°54' W 120°41'0 0.4
2017-Sep-11 18:45N 34°54' W 120°41'0 0.4
2017-Sep-11 18:30N 34°54' W 120°41'0 0.3
2017-Sep-11 17:53N 34°54' W 120°41'0 0.2
2017-Sep-11 17:30N 34°54' W 120°41'0 0.2
2017-Sep-11 16:53N 34°54' W 120°42'0 0.1
2017-Sep-11 16:18N 34°54' W 120°42'0 0.0
2017-Sep-10 20:42N 34°54' W 120°42'1 0.0
2017-Sep-09 05:46N 34°54' W 120°40'0 0.0
2017-Sep-09 05:28N 34°54' W 120°40'0 0.0
2017-Sep-09 04:38N 34°54' W 120°40'0 0.0
2017-Sep-09 03:15N 34°54' W 120°40'0 0.0
2017-Sep-09 02:54N 34°54' W 120°40'0 0.0
2017-Sep-08 20:41N 34°54' W 120°40'0 0.0
2017-Sep-08 20:30N 34°54' W 120°40'0 0.0
2017-Sep-08 17:35N 34°54' W 120°40'0 0.1
2017-Sep-08 17:28N 34°54' W 120°40'0 0.0
2017-Sep-07 16:36N 34°54' W 120°40'0 0.0
2017-Sep-07 16:29N 34°54' W 120°40'0 0.0
2017-Sep-07 12:51N 34°54' W 120°40'0 0.0
2017-Sep-07 09:03N 34°54' W 120°40'0 0.0
2017-Sep-07 08:59N 34°54' W 120°40'0 0.0
2017-Sep-07 07:28N 34°54' W 120°40'0 0.0
2017-Sep-07 06:41N 34°54' W 120°40'0 0.0
2017-Sep-07 05:09N 34°54' W 120°40'0 0.0
2017-Sep-06 21:53N 34°54' W 120°40'9 3.4
2017-Sep-06 19:14N 35°03' W 120°39'  

Dump ship's entire track history